sensor_id;sensor_type;location;lat;lon;timestamp;pressure;altitude;pressure_sealevel;temperature;humidity
47913;BME280;33676;51.006;17.180;2022-09-21T00:01:38;100752.34;;;7.81;100.00
47913;BME280;33676;51.006;17.180;2022-09-21T00:04:06;100754.55;;;7.79;100.00
47913;BME280;33676;51.006;17.180;2022-09-21T00:06:35;100755.92;;;7.77;100.00
47913;BME280;33676;51.006;17.180;2022-09-21T00:09:04;100755.49;;;7.75;100.00
47913;BME280;33676;51.006;17.180;2022-09-21T00:11:36;100754.19;;;7.74;100.00
47913;BME280;33676;51.006;17.180;2022-09-21T00:14:10;100756.68;;;7.73;100.00
47913;BME280;33676;51.006;17.180;2022-09-21T00:16:41;100755.88;;;7.72;100.00
47913;BME280;33676;51.006;17.180;2022-09-21T00:19:10;100757.89;;;7.70;100.00
47913;BME280;33676;51.006;17.180;2022-09-21T00:21:39;100761.42;;;7.69;100.00
47913;BME280;33676;51.006;17.180;2022-09-21T00:24:07;100759.56;;;7.68;100.00
47913;BME280;33676;51.006;17.180;2022-09-21T00:26:36;100758.74;;;7.67;100.00
47913;BME280;33676;51.006;17.180;2022-09-21T00:29:05;100759.34;;;7.66;100.00
47913;BME280;33676;51.006;17.180;2022-09-21T00:31:34;100758.56;;;7.65;100.00
47913;BME280;33676;51.006;17.180;2022-09-21T00:34:02;100760.36;;;7.63;100.00
47913;BME280;33676;51.006;17.180;2022-09-21T00:36:34;100759.23;;;7.62;100.00
47913;BME280;33676;51.006;17.180;2022-09-21T00:39:03;100761.56;;;7.60;100.00
47913;BME280;33676;51.006;17.180;2022-09-21T00:41:32;100763.39;;;7.59;100.00
47913;BME280;33676;51.006;17.180;2022-09-21T00:44:30;100768.56;;;7.57;100.00
47913;BME280;33676;51.006;17.180;2022-09-21T00:47:06;100766.58;;;7.55;100.00
47913;BME280;33676;51.006;17.180;2022-09-21T00:49:37;100765.25;;;7.54;100.00
47913;BME280;33676;51.006;17.180;2022-09-21T00:52:09;100770.44;;;7.51;100.00
47913;BME280;33676;51.006;17.180;2022-09-21T00:54:55;100768.48;;;7.49;100.00
47913;BME280;33676;51.006;17.180;2022-09-21T00:57:28;100773.95;;;7.48;100.00
47913;BME280;33676;51.006;17.180;2022-09-21T01:00:03;100772.28;;;7.47;100.00
47913;BME280;33676;51.006;17.180;2022-09-21T01:02:35;100771.70;;;7.45;100.00
47913;BME280;33676;51.006;17.180;2022-09-21T01:05:06;100772.82;;;7.43;100.00
47913;BME280;33676;51.006;17.180;2022-09-21T01:07:39;100776.92;;;7.42;100.00
47913;BME280;33676;51.006;17.180;2022-09-21T01:10:12;100781.36;;;7.40;100.00
47913;BME280;33676;51.006;17.180;2022-09-21T01:12:58;100783.90;;;7.38;100.00
47913;BME280;33676;51.006;17.180;2022-09-21T01:15:47;100784.20;;;7.36;100.00
47913;BME280;33676;51.006;17.180;2022-09-21T01:18:45;100784.52;;;7.33;100.00
47913;BME280;33676;51.006;17.180;2022-09-21T01:22:00;100786.75;;;7.31;100.00
47913;BME280;33676;51.006;17.180;2022-09-21T01:27:34;100786.77;;;7.27;100.00
47913;BME280;33676;51.006;17.180;2022-09-21T01:30:14;100786.20;;;7.25;100.00
47913;BME280;33676;51.006;17.180;2022-09-21T01:33:25;100788.75;;;7.23;100.00
47913;BME280;33676;51.006;17.180;2022-09-21T01:36:08;100791.11;;;7.22;100.00
47913;BME280;33676;51.006;17.180;2022-09-21T01:38:48;100794.34;;;7.20;100.00
47913;BME280;33676;51.006;17.180;2022-09-21T01:41:23;100794.74;;;7.19;100.00
47913;BME280;33676;51.006;17.180;2022-09-21T01:44:06;100794.25;;;7.18;100.00
47913;BME280;33676;51.006;17.180;2022-09-21T01:46:38;100798.29;;;7.17;100.00
47913;BME280;33676;51.006;17.180;2022-09-21T01:49:34;100797.65;;;7.16;100.00
47913;BME280;33676;51.006;17.180;2022-09-21T01:52:19;100797.36;;;7.15;100.00
47913;BME280;33676;51.006;17.180;2022-09-21T01:55:09;100801.00;;;7.16;100.00
47913;BME280;33676;51.006;17.180;2022-09-21T01:57:51;100799.35;;;7.17;100.00
47913;BME280;33676;51.006;17.180;2022-09-21T02:00:47;100802.56;;;7.19;100.00
47913;BME280;33676;51.006;17.180;2022-09-21T02:03:36;100804.41;;;7.20;100.00
47913;BME280;33676;51.006;17.180;2022-09-21T02:06:27;100804.65;;;7.22;100.00
47913;BME280;33676;51.006;17.180;2022-09-21T02:09:02;100804.79;;;7.23;100.00
47913;BME280;33676;51.006;17.180;2022-09-21T02:11:30;100810.33;;;7.23;100.00
47913;BME280;33676;51.006;17.180;2022-09-21T02:13:59;100812.61;;;7.22;100.00
47913;BME280;33676;51.006;17.180;2022-09-21T02:20:19;100812.88;;;7.24;100.00
47913;BME280;33676;51.006;17.180;2022-09-21T02:23:00;100812.71;;;7.24;100.00
47913;BME280;33676;51.006;17.180;2022-09-21T02:31:46;100814.55;;;7.28;100.00
47913;BME280;33676;51.006;17.180;2022-09-21T02:40:17;100818.16;;;7.32;100.00
47913;BME280;33676;51.006;17.180;2022-09-21T02:46:16;100816.82;;;7.37;100.00
47913;BME280;33676;51.006;17.180;2022-09-21T02:48:50;100820.71;;;7.39;100.00
47913;BME280;33676;51.006;17.180;2022-09-21T02:51:27;100819.95;;;7.41;100.00
47913;BME280;33676;51.006;17.180;2022-09-21T02:54:02;100827.30;;;7.43;100.00
47913;BME280;33676;51.006;17.180;2022-09-21T02:56:32;100831.12;;;7.46;100.00
47913;BME280;33676;51.006;17.180;2022-09-21T02:59:04;100833.37;;;7.49;100.00
47913;BME280;33676;51.006;17.180;2022-09-21T03:01:34;100837.73;;;7.52;100.00
47913;BME280;33676;51.006;17.180;2022-09-21T03:04:04;100840.48;;;7.56;100.00
47913;BME280;33676;51.006;17.180;2022-09-21T03:06:32;100843.58;;;7.59;100.00
47913;BME280;33676;51.006;17.180;2022-09-21T03:09:01;100843.93;;;7.62;100.00
47913;BME280;33676;51.006;17.180;2022-09-21T03:11:29;100845.48;;;7.66;100.00
47913;BME280;33676;51.006;17.180;2022-09-21T03:13:58;100846.05;;;7.68;100.00
47913;BME280;33676;51.006;17.180;2022-09-21T03:16:26;100845.42;;;7.70;100.00
47913;BME280;33676;51.006;17.180;2022-09-21T03:18:56;100845.13;;;7.72;100.00
47913;BME280;33676;51.006;17.180;2022-09-21T03:21:24;100841.00;;;7.74;100.00
47913;BME280;33676;51.006;17.180;2022-09-21T03:23:53;100838.66;;;7.75;100.00
47913;BME280;33676;51.006;17.180;2022-09-21T03:26:21;100843.43;;;7.77;100.00
47913;BME280;33676;51.006;17.180;2022-09-21T03:28:50;100844.95;;;7.78;100.00
47913;BME280;33676;51.006;17.180;2022-09-21T03:31:21;100840.65;;;7.80;100.00
47913;BME280;33676;51.006;17.180;2022-09-21T03:33:50;100842.00;;;7.80;100.00
47913;BME280;33676;51.006;17.180;2022-09-21T03:36:18;100844.41;;;7.81;100.00
47913;BME280;33676;51.006;17.180;2022-09-21T03:38:48;100845.36;;;7.83;100.00
47913;BME280;33676;51.006;17.180;2022-09-21T03:41:17;100845.98;;;7.84;100.00
47913;BME280;33676;51.006;17.180;2022-09-21T03:43:45;100845.76;;;7.85;100.00
47913;BME280;33676;51.006;17.180;2022-09-21T03:46:14;100853.70;;;7.86;100.00
47913;BME280;33676;51.006;17.180;2022-09-21T03:48:43;100848.46;;;7.86;100.00
47913;BME280;33676;51.006;17.180;2022-09-21T03:51:14;100852.05;;;7.87;100.00
47913;BME280;33676;51.006;17.180;2022-09-21T03:53:42;100853.64;;;7.87;100.00
47913;BME280;33676;51.006;17.180;2022-09-21T03:56:11;100856.57;;;7.87;100.00
47913;BME280;33676;51.006;17.180;2022-09-21T03:58:39;100860.36;;;7.88;100.00
47913;BME280;33676;51.006;17.180;2022-09-21T04:01:08;100865.55;;;7.89;100.00
47913;BME280;33676;51.006;17.180;2022-09-21T04:03:36;100862.75;;;7.89;100.00
47913;BME280;33676;51.006;17.180;2022-09-21T04:06:11;100863.77;;;7.89;100.00
47913;BME280;33676;51.006;17.180;2022-09-21T04:08:40;100863.67;;;7.91;100.00
47913;BME280;33676;51.006;17.180;2022-09-21T04:11:16;100866.94;;;7.92;100.00
47913;BME280;33676;51.006;17.180;2022-09-21T04:13:50;100867.39;;;7.93;100.00
47913;BME280;33676;51.006;17.180;2022-09-21T04:16:28;100871.52;;;7.94;100.00
47913;BME280;33676;51.006;17.180;2022-09-21T04:18:56;100867.52;;;7.94;100.00
47913;BME280;33676;51.006;17.180;2022-09-21T04:21:24;100870.95;;;7.95;100.00
47913;BME280;33676;51.006;17.180;2022-09-21T04:23:52;100873.86;;;7.95;100.00
47913;BME280;33676;51.006;17.180;2022-09-21T04:26:30;100875.92;;;7.96;100.00
47913;BME280;33676;51.006;17.180;2022-09-21T04:29:00;100879.34;;;7.97;100.00
47913;BME280;33676;51.006;17.180;2022-09-21T04:31:29;100883.09;;;7.99;100.00
47913;BME280;33676;51.006;17.180;2022-09-21T04:33:58;100880.93;;;8.00;100.00
47913;BME280;33676;51.006;17.180;2022-09-21T04:36:27;100881.16;;;8.02;100.00
47913;BME280;33676;51.006;17.180;2022-09-21T04:39:04;100882.66;;;8.03;100.00
47913;BME280;33676;51.006;17.180;2022-09-21T04:41:33;100882.41;;;8.04;100.00
47913;BME280;33676;51.006;17.180;2022-09-21T04:44:01;100882.11;;;8.07;100.00
47913;BME280;33676;51.006;17.180;2022-09-21T04:46:30;100881.66;;;8.08;100.00
47913;BME280;33676;51.006;17.180;2022-09-21T04:48:58;100880.65;;;8.11;100.00
47913;BME280;33676;51.006;17.180;2022-09-21T04:51:29;100886.10;;;8.13;100.00
47913;BME280;33676;51.006;17.180;2022-09-21T04:53:59;100885.27;;;8.15;100.00
47913;BME280;33676;51.006;17.180;2022-09-21T04:56:27;100879.02;;;8.18;100.00
47913;BME280;33676;51.006;17.180;2022-09-21T04:58:56;100881.12;;;8.20;100.00
47913;BME280;33676;51.006;17.180;2022-09-21T05:01:24;100881.20;;;8.22;100.00
47913;BME280;33676;51.006;17.180;2022-09-21T05:03:53;100886.27;;;8.25;100.00
47913;BME280;33676;51.006;17.180;2022-09-21T05:06:22;100887.89;;;8.27;100.00
47913;BME280;33676;51.006;17.180;2022-09-21T05:08:50;100892.43;;;8.29;100.00
47913;BME280;33676;51.006;17.180;2022-09-21T05:11:37;100894.56;;;8.32;100.00
47913;BME280;33676;51.006;17.180;2022-09-21T05:14:06;100894.60;;;8.34;100.00
47913;BME280;33676;51.006;17.180;2022-09-21T05:16:34;100897.52;;;8.38;100.00
47913;BME280;33676;51.006;17.180;2022-09-21T05:19:04;100897.46;;;8.42;100.00
47913;BME280;33676;51.006;17.180;2022-09-21T05:21:32;100900.92;;;8.45;100.00
47913;BME280;33676;51.006;17.180;2022-09-21T05:24:01;100901.29;;;8.48;100.00
47913;BME280;33676;51.006;17.180;2022-09-21T05:26:29;100906.11;;;8.51;100.00
47913;BME280;33676;51.006;17.180;2022-09-21T05:28:58;100912.34;;;8.55;100.00
47913;BME280;33676;51.006;17.180;2022-09-21T05:31:38;100906.63;;;8.58;100.00
47913;BME280;33676;51.006;17.180;2022-09-21T05:34:30;100911.90;;;8.60;100.00
47913;BME280;33676;51.006;17.180;2022-09-21T05:40:07;100911.84;;;8.64;100.00
47913;BME280;33676;51.006;17.180;2022-09-21T05:42:39;100925.28;;;8.67;100.00
47913;BME280;33676;51.006;17.180;2022-09-21T05:45:14;100918.61;;;8.67;100.00
47913;BME280;33676;51.006;17.180;2022-09-21T05:57:04;100924.70;;;8.76;100.00
47913;BME280;33676;51.006;17.180;2022-09-21T06:00:08;100928.68;;;8.80;100.00
47913;BME280;33676;51.006;17.180;2022-09-21T06:06:13;100939.13;;;8.94;100.00
47913;BME280;33676;51.006;17.180;2022-09-21T06:08:41;100937.52;;;8.97;100.00
47913;BME280;33676;51.006;17.180;2022-09-21T06:11:10;100937.95;;;8.99;100.00
47913;BME280;33676;51.006;17.180;2022-09-21T06:13:39;100934.58;;;9.00;100.00
47913;BME280;33676;51.006;17.180;2022-09-21T06:16:08;100938.16;;;9.01;100.00
47913;BME280;33676;51.006;17.180;2022-09-21T06:18:40;100936.89;;;9.05;100.00
47913;BME280;33676;51.006;17.180;2022-09-21T06:21:10;100936.15;;;9.08;100.00
47913;BME280;33676;51.006;17.180;2022-09-21T06:23:38;100927.14;;;9.10;100.00
47913;BME280;33676;51.006;17.180;2022-09-21T06:26:07;100931.88;;;9.12;100.00
47913;BME280;33676;51.006;17.180;2022-09-21T06:28:35;100937.21;;;9.16;100.00
47913;BME280;33676;51.006;17.180;2022-09-21T06:31:04;100942.73;;;9.20;100.00
47913;BME280;33676;51.006;17.180;2022-09-21T06:33:32;100940.83;;;9.23;100.00
47913;BME280;33676;51.006;17.180;2022-09-21T06:36:03;100944.20;;;9.28;100.00
47913;BME280;33676;51.006;17.180;2022-09-21T06:38:31;100944.71;;;9.34;100.00
47913;BME280;33676;51.006;17.180;2022-09-21T06:41:03;100950.33;;;9.41;100.00
47913;BME280;33676;51.006;17.180;2022-09-21T06:43:32;100949.25;;;9.50;100.00
47913;BME280;33676;51.006;17.180;2022-09-21T06:46:02;100953.86;;;9.57;100.00
47913;BME280;33676;51.006;17.180;2022-09-21T06:48:33;100951.25;;;9.62;100.00
47913;BME280;33676;51.006;17.180;2022-09-21T06:51:04;100954.56;;;9.71;100.00
47913;BME280;33676;51.006;17.180;2022-09-21T06:56:59;100952.03;;;9.88;100.00
47913;BME280;33676;51.006;17.180;2022-09-21T06:59:27;100955.19;;;9.93;100.00
47913;BME280;33676;51.006;17.180;2022-09-21T07:01:56;100956.83;;;9.98;100.00
47913;BME280;33676;51.006;17.180;2022-09-21T07:04:25;100957.56;;;10.03;100.00
47913;BME280;33676;51.006;17.180;2022-09-21T07:06:56;100956.36;;;10.08;100.00
47913;BME280;33676;51.006;17.180;2022-09-21T07:09:25;100959.46;;;10.14;100.00
47913;BME280;33676;51.006;17.180;2022-09-21T07:12:13;100967.00;;;10.19;100.00
47913;BME280;33676;51.006;17.180;2022-09-21T07:14:43;100968.55;;;10.22;100.00
47913;BME280;33676;51.006;17.180;2022-09-21T07:17:13;100970.69;;;10.30;100.00
47913;BME280;33676;51.006;17.180;2022-09-21T07:19:43;100975.59;;;10.37;100.00
47913;BME280;33676;51.006;17.180;2022-09-21T07:22:15;100973.77;;;10.43;100.00
47913;BME280;33676;51.006;17.180;2022-09-21T07:24:44;100979.38;;;10.51;100.00
47913;BME280;33676;51.006;17.180;2022-09-21T07:27:13;100979.80;;;10.55;100.00
47913;BME280;33676;51.006;17.180;2022-09-21T07:29:41;100982.69;;;10.59;100.00
47913;BME280;33676;51.006;17.180;2022-09-21T07:32:12;100981.05;;;10.66;100.00
47913;BME280;33676;51.006;17.180;2022-09-21T07:34:40;100984.34;;;10.74;100.00
47913;BME280;33676;51.006;17.180;2022-09-21T07:37:09;100984.73;;;10.86;100.00
47913;BME280;33676;51.006;17.180;2022-09-21T07:39:38;100984.92;;;11.01;100.00
47913;BME280;33676;51.006;17.180;2022-09-21T07:42:07;100984.46;;;11.10;100.00
47913;BME280;33676;51.006;17.180;2022-09-21T07:44:35;100986.19;;;11.15;100.00
47913;BME280;33676;51.006;17.180;2022-09-21T07:47:09;100985.47;;;11.18;100.00
47913;BME280;33676;51.006;17.180;2022-09-21T07:49:38;100990.34;;;11.21;100.00
47913;BME280;33676;51.006;17.180;2022-09-21T07:52:07;100988.18;;;11.24;100.00
47913;BME280;33676;51.006;17.180;2022-09-21T07:54:38;100990.92;;;11.30;100.00
47913;BME280;33676;51.006;17.180;2022-09-21T07:57:07;100986.86;;;11.34;100.00
47913;BME280;33676;51.006;17.180;2022-09-21T07:59:54;100987.17;;;11.41;100.00
47913;BME280;33676;51.006;17.180;2022-09-21T08:02:26;100985.10;;;11.48;100.00
47913;BME280;33676;51.006;17.180;2022-09-21T08:04:54;100993.67;;;11.46;100.00
47913;BME280;33676;51.006;17.180;2022-09-21T08:07:27;100998.86;;;11.42;100.00
47913;BME280;33676;51.006;17.180;2022-09-21T08:09:56;101001.86;;;11.42;100.00
47913;BME280;33676;51.006;17.180;2022-09-21T08:12:26;101000.39;;;11.43;100.00
47913;BME280;33676;51.006;17.180;2022-09-21T08:14:55;101005.60;;;11.45;100.00
47913;BME280;33676;51.006;17.180;2022-09-21T08:17:29;101005.77;;;11.48;100.00
47913;BME280;33676;51.006;17.180;2022-09-21T08:19:59;101003.46;;;11.51;100.00
47913;BME280;33676;51.006;17.180;2022-09-21T08:22:33;101003.79;;;11.54;100.00
47913;BME280;33676;51.006;17.180;2022-09-21T08:25:02;100999.55;;;11.54;100.00
47913;BME280;33676;51.006;17.180;2022-09-21T08:27:33;100996.79;;;11.58;100.00
47913;BME280;33676;51.006;17.180;2022-09-21T08:30:07;100996.31;;;11.65;100.00
47913;BME280;33676;51.006;17.180;2022-09-21T08:32:40;101001.51;;;11.76;100.00
47913;BME280;33676;51.006;17.180;2022-09-21T08:35:18;101000.92;;;11.80;100.00
47913;BME280;33676;51.006;17.180;2022-09-21T08:37:46;101005.81;;;11.80;100.00
47913;BME280;33676;51.006;17.180;2022-09-21T08:40:19;101007.55;;;11.82;100.00
47913;BME280;33676;51.006;17.180;2022-09-21T08:43:11;101011.48;;;11.86;100.00
47913;BME280;33676;51.006;17.180;2022-09-21T08:45:43;101008.86;;;11.91;100.00
47913;BME280;33676;51.006;17.180;2022-09-21T08:48:22;101013.08;;;11.96;100.00
47913;BME280;33676;51.006;17.180;2022-09-21T08:51:02;101012.65;;;11.99;100.00
47913;BME280;33676;51.006;17.180;2022-09-21T08:53:36;101010.80;;;12.00;100.00
47913;BME280;33676;51.006;17.180;2022-09-21T08:56:09;101009.52;;;12.04;100.00
47913;BME280;33676;51.006;17.180;2022-09-21T08:58:38;101009.56;;;12.10;100.00
47913;BME280;33676;51.006;17.180;2022-09-21T09:04:44;101007.11;;;12.24;100.00
47913;BME280;33676;51.006;17.180;2022-09-21T09:07:54;101009.94;;;12.26;100.00
47913;BME280;33676;51.006;17.180;2022-09-21T09:10:52;101011.17;;;12.34;100.00
47913;BME280;33676;51.006;17.180;2022-09-21T09:13:47;101012.95;;;12.47;100.00
47913;BME280;33676;51.006;17.180;2022-09-21T09:20:23;101008.46;;;12.81;100.00
47913;BME280;33676;51.006;17.180;2022-09-21T09:22:35;101009.09;;;12.94;100.00
47913;BME280;33676;51.006;17.180;2022-09-21T09:25:15;101010.33;;;13.01;100.00
47913;BME280;33676;51.006;17.180;2022-09-21T09:27:45;101010.14;;;13.14;100.00
47913;BME280;33676;51.006;17.180;2022-09-21T09:30:20;101005.67;;;13.29;100.00
47913;BME280;33676;51.006;17.180;2022-09-21T09:32:56;101008.75;;;13.42;100.00
47913;BME280;33676;51.006;17.180;2022-09-21T09:35:37;101008.39;;;13.51;100.00
47913;BME280;33676;51.006;17.180;2022-09-21T09:52:52;101012.50;;;14.30;100.00
47913;BME280;33676;51.006;17.180;2022-09-21T09:55:54;101011.41;;;14.24;100.00
47913;BME280;33676;51.006;17.180;2022-09-21T09:58:41;101012.07;;;14.20;100.00
47913;BME280;33676;51.006;17.180;2022-09-21T10:04:12;101012.93;;;14.29;100.00
47913;BME280;33676;51.006;17.180;2022-09-21T10:06:41;101012.55;;;14.38;100.00
47913;BME280;33676;51.006;17.180;2022-09-21T10:09:19;101010.52;;;14.44;100.00
47913;BME280;33676;51.006;17.180;2022-09-21T10:11:52;101009.44;;;14.61;100.00
47913;BME280;33676;51.006;17.180;2022-09-21T10:14:24;101002.52;;;14.80;100.00
47913;BME280;33676;51.006;17.180;2022-09-21T10:16:55;100997.50;;;14.98;100.00
47913;BME280;33676;51.006;17.180;2022-09-21T10:19:27;100992.29;;;15.15;100.00
47913;BME280;33676;51.006;17.180;2022-09-21T10:22:01;100996.01;;;15.36;100.00
47913;BME280;33676;51.006;17.180;2022-09-21T10:24:37;100992.29;;;15.44;100.00
47913;BME280;33676;51.006;17.180;2022-09-21T10:27:17;100991.95;;;15.52;100.00
47913;BME280;33676;51.006;17.180;2022-09-21T10:29:48;100986.24;;;15.63;100.00
47913;BME280;33676;51.006;17.180;2022-09-21T10:32:27;100984.02;;;15.76;100.00
47913;BME280;33676;51.006;17.180;2022-09-21T10:37:37;100979.95;;;16.33;100.00
47913;BME280;33676;51.006;17.180;2022-09-21T10:42:53;100977.16;;;17.10;100.00
47913;BME280;33676;51.006;17.180;2022-09-21T10:45:25;100976.61;;;17.35;100.00
47913;BME280;33676;51.006;17.180;2022-09-21T10:50:39;100972.81;;;17.56;98.81
47913;BME280;33676;51.006;17.180;2022-09-21T10:55:43;100967.73;;;17.44;97.11
47913;BME280;33676;51.006;17.180;2022-09-21T10:58:34;100968.54;;;17.45;96.60
47913;BME280;33676;51.006;17.180;2022-09-21T11:01:21;100964.83;;;17.50;96.45
47913;BME280;33676;51.006;17.180;2022-09-21T11:04:02;100958.51;;;17.54;95.93
47913;BME280;33676;51.006;17.180;2022-09-21T11:06:37;100953.85;;;17.47;95.77
47913;BME280;33676;51.006;17.180;2022-09-21T11:09:15;100960.23;;;17.65;96.16
47913;BME280;33676;51.006;17.180;2022-09-21T11:17:44;100952.91;;;18.69;92.79
47913;BME280;33676;51.006;17.180;2022-09-21T11:20:52;100952.93;;;18.86;92.04
47913;BME280;33676;51.006;17.180;2022-09-21T11:23:55;100954.75;;;19.30;91.62
47913;BME280;33676;51.006;17.180;2022-09-21T11:26:40;100948.59;;;19.68;90.59
47913;BME280;33676;51.006;17.180;2022-09-21T11:29:31;100952.91;;;19.91;89.52
47913;BME280;33676;51.006;17.180;2022-09-21T11:32:10;100954.16;;;20.01;87.70
47913;BME280;33676;51.006;17.180;2022-09-21T11:46:28;100933.45;;;20.30;86.02
47913;BME280;33676;51.006;17.180;2022-09-21T11:49:42;100934.27;;;20.57;85.94
47913;BME280;33676;51.006;17.180;2022-09-21T12:03:51;100932.52;;;20.61;81.15
47913;BME280;33676;51.006;17.180;2022-09-21T12:09:25;100931.33;;;20.49;80.07
47913;BME280;33676;51.006;17.180;2022-09-21T12:15:08;100924.42;;;20.02;79.05
47913;BME280;33676;51.006;17.180;2022-09-21T12:21:29;100915.83;;;20.45;78.66
47913;BME280;33676;51.006;17.180;2022-09-21T12:26:45;100912.85;;;19.86;78.77
47913;BME280;33676;51.006;17.180;2022-09-21T12:29:22;100914.21;;;19.55;79.42
47913;BME280;33676;51.006;17.180;2022-09-21T12:32:41;100913.52;;;19.33;79.72
47913;BME280;33676;51.006;17.180;2022-09-21T12:35:35;100912.77;;;19.08;79.98
47913;BME280;33676;51.006;17.180;2022-09-21T12:38:17;100908.06;;;19.21;80.31
47913;BME280;33676;51.006;17.180;2022-09-21T12:41:05;100910.47;;;19.50;80.66
47913;BME280;33676;51.006;17.180;2022-09-21T12:43:50;100910.33;;;19.53;78.86
47913;BME280;33676;51.006;17.180;2022-09-21T12:46:27;100913.67;;;19.81;77.81
47913;BME280;33676;51.006;17.180;2022-09-21T12:49:00;100911.88;;;20.09;76.44
47913;BME280;33676;51.006;17.180;2022-09-21T12:51:35;100908.34;;;20.06;76.56
47913;BME280;33676;51.006;17.180;2022-09-21T12:54:52;100908.23;;;19.94;76.28
47913;BME280;33676;51.006;17.180;2022-09-21T12:58:00;100909.70;;;19.74;76.93
47913;BME280;33676;51.006;17.180;2022-09-21T13:01:15;100907.64;;;19.76;77.45
47913;BME280;33676;51.006;17.180;2022-09-21T13:09:49;100901.15;;;19.97;78.69
47913;BME280;33676;51.006;17.180;2022-09-21T13:12:23;100900.52;;;20.00;77.48
47913;BME280;33676;51.006;17.180;2022-09-21T13:15:02;100898.88;;;19.87;76.63
47913;BME280;33676;51.006;17.180;2022-09-21T13:17:32;100893.98;;;19.80;76.31
47913;BME280;33676;51.006;17.180;2022-09-21T13:20:19;100893.23;;;19.97;76.91
47913;BME280;33676;51.006;17.180;2022-09-21T13:22:57;100889.63;;;19.87;75.94
47913;BME280;33676;51.006;17.180;2022-09-21T13:25:32;100887.75;;;19.83;76.82
47913;BME280;33676;51.006;17.180;2022-09-21T13:28:58;100889.81;;;20.03;77.12
47913;BME280;33676;51.006;17.180;2022-09-21T13:31:57;100890.21;;;19.87;76.66
47913;BME280;33676;51.006;17.180;2022-09-21T13:37:28;100897.84;;;19.28;75.95
47913;BME280;33676;51.006;17.180;2022-09-21T13:47:48;100906.73;;;18.15;78.15
47913;BME280;33676;51.006;17.180;2022-09-21T13:50:25;100900.48;;;17.97;78.11
47913;BME280;33676;51.006;17.180;2022-09-21T13:53:05;100893.52;;;17.86;78.87
47913;BME280;33676;51.006;17.180;2022-09-21T13:55:41;100893.11;;;17.79;79.66
47913;BME280;33676;51.006;17.180;2022-09-21T13:58:34;100890.95;;;17.75;80.02
47913;BME280;33676;51.006;17.180;2022-09-21T14:01:20;100893.59;;;17.74;80.15
47913;BME280;33676;51.006;17.180;2022-09-21T14:04:31;100892.94;;;17.72;80.19
47913;BME280;33676;51.006;17.180;2022-09-21T14:07:04;100891.84;;;17.70;79.82
47913;BME280;33676;51.006;17.180;2022-09-21T14:10:03;100889.58;;;17.68;79.70
47913;BME280;33676;51.006;17.180;2022-09-21T14:12:39;100887.05;;;17.76;80.12
47913;BME280;33676;51.006;17.180;2022-09-21T14:23:37;100873.65;;;20.44;79.38
47913;BME280;33676;51.006;17.180;2022-09-21T14:26:32;100870.51;;;20.61;77.90
47913;BME280;33676;51.006;17.180;2022-09-21T14:29:36;100876.09;;;20.28;74.75
47913;BME280;33676;51.006;17.180;2022-09-21T14:32:19;100875.30;;;19.74;73.92
47913;BME280;33676;51.006;17.180;2022-09-21T14:34:57;100875.73;;;19.46;74.52
47913;BME280;33676;51.006;17.180;2022-09-21T14:37:35;100875.98;;;19.68;75.30
47913;BME280;33676;51.006;17.180;2022-09-21T14:40:26;100872.31;;;19.54;75.35
47913;BME280;33676;51.006;17.180;2022-09-21T14:43:00;100869.90;;;19.64;76.01
47913;BME280;33676;51.006;17.180;2022-09-21T14:48:41;100867.95;;;21.54;76.70
47913;BME280;33676;51.006;17.180;2022-09-21T14:54:29;100859.71;;;21.94;75.84
47913;BME280;33676;51.006;17.180;2022-09-21T15:00:19;100861.19;;;22.36;75.70
47913;BME280;33676;51.006;17.180;2022-09-21T15:06:23;100864.27;;;21.40;73.73
47913;BME280;33676;51.006;17.180;2022-09-21T15:12:25;100861.55;;;19.98;71.49
47913;BME280;33676;51.006;17.180;2022-09-21T15:15:33;100858.52;;;19.55;71.99
47913;BME280;33676;51.006;17.180;2022-09-21T15:18:17;100866.81;;;19.35;73.00
47913;BME280;33676;51.006;17.180;2022-09-21T15:20:56;100868.55;;;19.10;72.88
47913;BME280;33676;51.006;17.180;2022-09-21T15:23:37;100866.92;;;18.97;73.04
47913;BME280;33676;51.006;17.180;2022-09-21T15:26:09;100871.70;;;18.63;73.11
47913;BME280;33676;51.006;17.180;2022-09-21T15:28:45;100874.95;;;18.34;73.40
47913;BME280;33676;51.006;17.180;2022-09-21T15:31:39;100873.52;;;18.09;73.86
47913;BME280;33676;51.006;17.180;2022-09-21T15:34:09;100873.39;;;17.98;74.06
47913;BME280;33676;51.006;17.180;2022-09-21T15:36:41;100871.61;;;17.81;74.64
47913;BME280;33676;51.006;17.180;2022-09-21T15:39:29;100876.54;;;17.82;75.38
47913;BME280;33676;51.006;17.180;2022-09-21T15:42:12;100867.59;;;19.18;76.14
47913;BME280;33676;51.006;17.180;2022-09-21T15:44:47;100866.43;;;20.39;76.64
47913;BME280;33676;51.006;17.180;2022-09-21T15:47:20;100866.15;;;21.30;75.85
47913;BME280;33676;51.006;17.180;2022-09-21T15:49:51;100867.08;;;21.98;74.35
47913;BME280;33676;51.006;17.180;2022-09-21T15:52:35;100867.65;;;22.16;73.95
47913;BME280;33676;51.006;17.180;2022-09-21T15:55:23;100864.27;;;22.77;73.66
47913;BME280;33676;51.006;17.180;2022-09-21T15:57:54;100861.77;;;23.25;73.09
47913;BME280;33676;51.006;17.180;2022-09-21T16:00:33;100867.95;;;23.72;73.31
47913;BME280;33676;51.006;17.180;2022-09-21T16:03:18;100870.09;;;24.26;73.07
47913;BME280;33676;51.006;17.180;2022-09-21T16:05:50;100873.64;;;24.56;71.24